Time;durP1;ratioP1;P1;durP2;ratioP2;P2;SDS_P1;SDS_P2;PMS_P1;PMS_P2;Temp;Humidity;BMP_temperature;BMP_pressure;BME280_temperature;BME280_humidity;BME280_pressure;Samples;Min_cycle;Max_cycle;Signal;HPM_P1;HPM_P2
2021/04/14 00:00:34;;;;;;;0.13;0.13;;;;;;;3.23;67.84;101766.09;5088730;28;20294;-69
2021/04/14 00:03:03;;;;;;;0.50;0.50;;;;;;;3.36;67.97;101787.94;5084257;28;20204;-69
2021/04/14 00:05:33;;;;;;;0.30;0.30;;;;;;;3.28;67.50;101779.25;5081346;28;20205;-69
2021/04/14 00:08:00;;;;;;;0.83;0.30;;;;;;;3.11;68.52;101777.84;5089841;28;20275;-69
2021/04/14 00:10:29;;;;;;;0.10;0.10;;;;;;;3.17;68.32;101781.28;5088998;28;20318;-70
2021/04/14 00:12:57;;;;;;;1.03;0.50;;;;;;;3.19;68.11;101779.47;5086086;28;20742;-69
2021/04/14 00:15:30;;;;;;;4.60;0.37;;;;;;;3.19;67.77;101782.97;5080817;28;20200;-69
2021/04/14 00:17:58;;;;;;;0.17;0.17;;;;;;;3.17;68.17;101779.50;5076156;28;20231;-69
2021/04/14 00:20:26;;;;;;;0.20;0.20;;;;;;;3.16;67.92;101779.53;5081314;28;20220;-69
2021/04/14 00:22:53;;;;;;;1999.90;999.90;;;;;;;3.17;67.96;101783.94;5074540;28;20284;-72
2021/04/14 00:25:23;;;;;;;647.93;156.23;;;;;;;3.12;67.81;101778.72;5077105;28;20362;-72
2021/04/14 00:27:51;;;;;;;34.03;10.67;;;;;;;2.98;68.50;101775.44;5084063;28;20247;-72
2021/04/14 00:30:19;;;;;;;1.00;1.00;;;;;;;2.84;69.04;101751.88;5072772;28;20224;-69
2021/04/14 00:32:48;;;;;;;2.07;1.87;;;;;;;3.07;68.70;101783.25;5074140;28;20251;-69
2021/04/14 00:35:17;;;;;;;0.97;0.97;;;;;;;3.05;68.48;101785.91;5084029;28;20838;-69
2021/04/14 00:37:44;;;;;;;0.63;0.63;;;;;;;2.99;68.50;101786.03;5079932;28;20196;-69
2021/04/14 00:40:14;;;;;;;0.70;0.70;;;;;;;3.01;68.88;101786.88;5074130;28;20293;-69
2021/04/14 00:42:42;;;;;;;0.50;0.50;;;;;;;2.57;68.89;101728.53;5087148;28;20242;-69
2021/04/14 00:45:10;;;;;;;0.93;0.50;;;;;;;2.88;68.95;101779.19;5077534;28;20280;-69
2021/04/14 00:47:37;;;;;;;0.53;0.53;;;;;;;2.95;68.80;101791.44;5069796;28;20231;-70
2021/04/14 00:50:09;;;;;;;0.70;0.70;;;;;;;2.69;68.66;101758.31;5076245;28;20201;-70
2021/04/14 00:52:36;;;;;;;0.57;0.57;;;;;;;2.87;68.65;101803.97;5080696;28;20207;-69
2021/04/14 00:55:07;;;;;;;0.40;0.40;;;;;;;2.77;68.98;101795.31;5081762;28;20254;-69
2021/04/14 00:57:34;;;;;;;0.77;0.50;;;;;;;2.75;68.84;101803.28;5081872;28;20223;-70
2021/04/14 01:00:01;;;;;;;1.07;0.97;;;;;;;2.71;69.16;101800.72;5080228;28;20212;-69
2021/04/14 01:02:29;;;;;;;0.63;0.63;;;;;;;2.64;69.00;101799.09;5075669;28;20708;-70
2021/04/14 01:04:56;;;;;;;0.60;0.60;;;;;;;2.62;69.11;101804.41;5074514;28;20291;-69
2021/04/14 01:07:24;;;;;;;2.00;0.60;;;;;;;2.55;69.05;101807.22;5083471;28;20234;-69
2021/04/14 01:09:52;;;;;;;0.40;0.40;;;;;;;2.46;69.55;101813.56;5077401;28;20314;-68
2021/04/14 01:12:19;;;;;;;0.57;0.30;;;;;;;2.41;69.64;101804.78;5070554;28;20224;-69
2021/04/14 01:14:46;;;;;;;0.20;0.20;;;;;;;2.38;69.67;101805.72;5070709;28;20196;-69
2021/04/14 01:17:13;;;;;;;0.73;0.40;;;;;;;2.38;69.92;101810.13;5080191;28;20731;-69
2021/04/14 01:19:40;;;;;;;0.40;0.40;;;;;;;2.33;69.72;101815.53;5073533;28;20598;-69
2021/04/14 01:22:08;;;;;;;0.40;0.40;;;;;;;2.21;70.41;101820.16;5090158;28;20226;-70
2021/04/14 01:24:35;;;;;;;0.77;0.30;;;;;;;2.25;70.18;101821.84;5085885;28;20307;-69
2021/04/14 01:27:03;;;;;;;1.93;0.43;;;;;;;2.24;70.07;101822.75;5085431;28;20757;-69
2021/04/14 01:29:31;;;;;;;0.40;0.40;;;;;;;2.14;70.46;101817.59;5088182;28;20200;-69
2021/04/14 01:31:58;;;;;;;0.87;0.40;;;;;;;2.18;70.43;101818.44;5086922;28;20291;-68
2021/04/14 01:34:25;;;;;;;0.30;0.30;;;;;;;2.17;70.79;101820.22;5084062;28;20237;-69
2021/04/14 01:36:52;;;;;;;1.93;0.30;;;;;;;2.15;71.06;101829.09;5077212;28;20207;-69
2021/04/14 01:39:20;;;;;;;0.93;0.40;;;;;;;2.20;70.37;101818.41;5082866;28;20871;-69
2021/04/14 01:41:48;;;;;;;1.70;0.73;;;;;;;2.15;71.01;101824.66;5078862;28;20301;-69
2021/04/14 01:44:15;;;;;;;0.47;0.47;;;;;;;2.04;70.69;101818.63;5084200;28;20200;-69
2021/04/14 01:46:43;;;;;;;0.20;0.20;;;;;;;2.06;71.22;101830.06;5078503;28;20209;-69
2021/04/14 01:49:12;;;;;;;0.30;0.30;;;;;;;2.10;70.98;101837.06;5091235;28;20253;-69
2021/04/14 01:51:39;;;;;;;0.30;0.30;;;;;;;2.07;70.78;101837.13;5092106;28;20553;-72
2021/04/14 01:54:07;;;;;;;0.43;0.43;;;;;;;1.74;70.95;101789.94;5091044;28;20673;-72
2021/04/14 01:56:35;;;;;;;0.53;0.30;;;;;;;1.98;71.50;101828.44;5090093;28;20218;-72
2021/04/14 01:59:04;;;;;;;0.17;0.17;;;;;;;2.00;71.30;101840.78;5080502;28;20204;-72
2021/04/14 02:01:32;;;;;;;0.33;0.33;;;;;;;2.02;71.04;101843.41;5082875;28;20223;-72
2021/04/14 02:03:59;;;;;;;0.30;0.30;;;;;;;1.96;71.20;101851.44;5090000;28;21139;-72
2021/04/14 02:06:27;;;;;;;0.50;0.50;;;;;;;1.66;71.49;101802.44;5084899;28;20191;-72
2021/04/14 02:08:54;;;;;;;0.50;0.43;;;;;;;1.89;71.35;101847.13;5089377;28;20259;-72
2021/04/14 02:11:22;;;;;;;0.60;0.30;;;;;;;1.90;71.34;101854.19;5081262;28;20287;-72
2021/04/14 02:13:50;;;;;;;1999.90;963.00;;;;;;;1.84;71.44;101852.50;5080389;28;20265;-72
2021/04/14 02:16:21;;;;;;;31.83;12.00;;;;;;;1.86;71.03;101859.53;5089338;28;20253;-72
2021/04/14 02:18:49;;;;;;;5.17;1.63;;;;;;;1.87;72.07;101863.03;5076710;28;20276;-72
2021/04/14 02:21:17;;;;;;;0.90;0.90;;;;;;;1.86;72.52;101863.94;5081957;28;20221;-73
2021/04/14 02:23:45;;;;;;;0.97;0.87;;;;;;;1.81;71.72;101863.97;5081431;28;20739;-72
2021/04/14 02:26:15;;;;;;;1.00;0.90;;;;;;;1.70;72.14;101855.31;5072537;28;20638;-72
2021/04/14 02:28:44;;;;;;;0.60;0.60;;;;;;;1.72;72.34;101861.47;5072844;28;20193;-73
2021/04/14 02:31:13;;;;;;;1.77;1.60;;;;;;;1.78;71.85;101863.16;5080998;28;20199;-72
2021/04/14 02:33:40;;;;;;;0.60;0.60;;;;;;;1.63;72.11;101834.25;5090849;28;20672;-72
2021/04/14 02:36:08;;;;;;;2.40;0.63;;;;;;;1.79;72.07;101862.25;5084900;28;20261;-73
2021/04/14 02:38:35;;;;;;;0.43;0.40;;;;;;;1.56;72.45;101820.22;5073122;28;20201;-73
2021/04/14 02:41:04;;;;;;;2.50;1.33;;;;;;;1.77;71.62;101858.75;5088172;28;20231;-72
2021/04/14 02:43:31;;;;;;;0.50;0.50;;;;;;;1.86;71.96;101871.88;5088401;28;20288;-73
2021/04/14 02:45:58;;;;;;;1.40;1.30;;;;;;;1.59;71.59;101838.72;5079500;28;20590;-72
2021/04/14 02:48:27;;;;;;;0.90;0.90;;;;;;;1.81;71.88;101876.34;5084275;28;20775;-72
2021/04/14 02:50:54;;;;;;;0.60;0.60;;;;;;;1.80;71.73;101880.75;5089787;28;20235;-72
2021/04/14 02:53:21;;;;;;;0.93;0.80;;;;;;;1.80;71.94;101879.88;5090593;28;20207;-72
2021/04/14 02:55:48;;;;;;;0.50;0.50;;;;;;;1.80;71.88;101885.19;5084390;28;20194;-73
2021/04/14 02:58:15;;;;;;;0.60;0.60;;;;;;;1.80;71.47;101885.19;5087230;28;20196;-72
2021/04/14 03:00:43;;;;;;;2.33;1.53;;;;;;;1.29;72.65;101821.44;5071483;28;20206;-72
2021/04/14 03:03:10;;;;;;;5.80;3.87;;;;;;;1.72;71.93;101895.00;5073591;28;20558;-73
2021/04/14 03:05:38;;;;;;;2.50;0.70;;;;;;;1.78;71.69;101903.75;5076465;28;20207;-73
2021/04/14 03:08:06;;;;;;;0.30;0.23;;;;;;;1.74;71.66;101912.63;5075566;28;20204;-73
2021/04/14 03:10:33;;;;;;;2.70;0.30;;;;;;;1.45;71.74;101872.38;5098968;28;20253;-73
2021/04/14 03:13:02;;;;;;;0.97;0.50;;;;;;;1.68;71.72;101906.53;5087902;28;20212;-73
2021/04/14 03:15:35;;;;;;;0.23;0.23;;;;;;;1.62;71.46;101917.19;5078802;28;20278;-70
2021/04/14 03:18:03;;;;;;;0.30;0.30;;;;;;;1.38;71.48;101876.00;5079901;28;20277;-69
2021/04/14 03:20:31;;;;;;;0.30;0.30;;;;;;;1.22;71.44;101859.41;5082746;28;20203;-69
2021/04/14 03:22:59;;;;;;;0.57;0.30;;;;;;;1.48;71.10;101905.00;5085951;28;20309;-69
2021/04/14 03:25:31;;;;;;;0.30;0.30;;;;;;;1.54;71.06;101925.25;5085538;28;20201;-70
2021/04/14 03:27:58;;;;;;;0.27;0.27;;;;;;;1.41;71.06;101911.25;5082877;28;20202;-69
2021/04/14 03:30:26;;;;;;;0.60;0.40;;;;;;;1.46;71.40;101927.94;5090112;28;20278;-69
2021/04/14 03:32:53;;;;;;;1.20;0.40;;;;;;;1.39;71.30;101931.56;5089591;28;20617;-68
2021/04/14 03:35:23;;;;;;;1.47;0.40;;;;;;;1.36;71.00;101928.06;5089841;28;20197;-69
2021/04/14 03:37:51;;;;;;;0.40;0.40;;;;;;;1.37;71.45;101935.13;5096673;28;20620;-69
2021/04/14 03:40:19;;;;;;;0.30;0.30;;;;;;;1.40;71.39;101949.19;5080293;28;20277;-69
2021/04/14 03:42:47;;;;;;;0.23;0.23;;;;;;;0.83;70.86;101855.44;5075698;28;20220;-68
2021/04/14 03:45:19;;;;;;;0.50;0.43;;;;;;;1.40;70.98;101957.13;5076981;28;20223;-68
2021/04/14 03:47:46;;;;;;;0.87;0.57;;;;;;;1.39;71.30;101963.31;5077104;28;20256;-69
2021/04/14 03:50:16;;;;;;;0.20;0.20;;;;;;;1.36;71.51;101963.34;5087467;28;20317;-69
2021/04/14 03:52:43;;;;;;;0.23;0.23;;;;;;;1.36;71.30;101968.66;5074357;28;20294;-69
2021/04/14 03:55:13;;;;;;;0.30;0.30;;;;;;;1.36;71.19;101968.66;5077517;28;20215;-69
2021/04/14 03:57:45;;;;;;;0.23;0.23;;;;;;;1.34;71.35;101972.19;5084245;28;20193;-68
2021/04/14 04:00:13;;;;;;;0.40;0.40;;;;;;;1.32;71.69;101973.97;5083807;28;20407;-69
2021/04/14 04:02:41;;;;;;;0.50;0.30;;;;;;;1.22;71.66;101975.81;5076700;28;20268;-69
2021/04/14 04:05:10;;;;;;;0.40;0.40;;;;;;;1.23;71.94;101978.47;5078257;28;20260;-69
2021/04/14 04:07:37;;;;;;;0.63;0.63;;;;;;;1.04;71.25;101946.91;5074328;28;20627;-69
2021/04/14 04:10:07;;;;;;;58.23;29.87;;;;;;;1.32;71.51;101989.88;5078439;28;20761;-69
2021/04/14 04:12:34;;;;;;;0.83;0.83;;;;;;;1.34;71.35;101991.59;5077841;28;20204;-69
2021/04/14 04:15:11;;;;;;;0.70;0.60;;;;;;;1.34;72.12;101983.66;5088771;28;20232;-70
2021/04/14 04:17:39;;;;;;;3.00;2.53;;;;;;;1.24;71.92;101958.19;5077299;28;20300;-69
2021/04/14 04:20:08;;;;;;;0.67;0.50;;;;;;;1.50;71.98;102001.13;5077637;28;20221;-69
2021/04/14 04:22:35;;;;;;;0.60;0.60;;;;;;;1.65;71.88;102004.53;5076516;28;20343;-68
2021/04/14 04:25:04;;;;;;;0.73;0.57;;;;;;;1.54;71.67;101972.88;5075824;28;20196;-70
2021/04/14 04:27:31;;;;;;;0.50;0.50;;;;;;;1.81;71.45;102003.44;5076377;28;20203;-68
2021/04/14 04:29:58;;;;;;;0.50;0.50;;;;;;;1.92;71.08;102011.28;5075519;28;20198;-68
2021/04/14 04:32:27;;;;;;;22.70;15.07;;;;;;;2.04;71.14;102011.13;5074707;28;20682;-69
2021/04/14 04:34:54;;;;;;;2.73;1.33;;;;;;;2.17;71.21;102013.63;5072671;28;20615;-68
2021/04/14 04:37:21;;;;;;;0.60;0.60;;;;;;;2.20;70.82;101990.63;5076188;28;20543;-68
2021/04/14 04:39:48;;;;;;;1.07;0.70;;;;;;;2.41;70.51;102019.47;5071641;28;20264;-68
2021/04/14 04:42:15;;;;;;;0.87;0.50;;;;;;;2.52;69.98;102009.63;5074761;28;20298;-68
2021/04/14 04:44:43;;;;;;;1.10;1.00;;;;;;;2.59;69.89;102016.59;5078363;28;20253;-68
2021/04/14 04:47:11;;;;;;;0.77;0.77;;;;;;;2.75;69.41;102017.22;5081500;28;20249;-68
2021/04/14 04:49:39;;;;;;;0.67;0.63;;;;;;;2.91;69.69;102013.44;5083153;28;20232;-69
2021/04/14 04:52:07;;;;;;;2.80;0.60;;;;;;;2.76;69.12;101981.88;5080293;28;20275;-68
2021/04/14 04:54:34;;;;;;;3.40;0.50;;;;;;;3.14;68.90;102031.66;5077266;28;20204;-68
2021/04/14 04:57:02;;;;;;;0.53;0.53;;;;;;;3.13;68.61;102013.09;5082460;28;20261;-68
2021/04/14 04:59:29;;;;;;;0.53;0.53;;;;;;;3.38;68.05;102035.69;5077934;28;20209;-69
2021/04/14 05:01:58;;;;;;;0.33;0.33;;;;;;;3.41;67.49;102040.94;5077399;28;20240;-69
2021/04/14 05:04:27;;;;;;;2.03;0.83;;;;;;;3.52;67.78;102033.66;5079080;28;20227;-66
2021/04/14 05:06:55;;;;;;;0.63;0.60;;;;;;;3.69;67.19;102038.69;5072106;28;20689;-68
2021/04/14 05:09:22;;;;;;;0.33;0.33;;;;;;;3.78;67.53;102035.84;5072211;28;20228;-68
2021/04/14 05:11:50;;;;;;;0.43;0.43;;;;;;;3.82;66.69;102026.03;5068530;28;20646;-68
2021/04/14 05:14:17;;;;;;;0.60;0.60;;;;;;;4.04;66.68;102041.53;5074676;28;20278;-66
2021/04/14 05:16:44;;;;;;;0.57;0.53;;;;;;;4.16;66.12;102048.38;5072335;28;20294;-68
2021/04/14 05:19:12;;;;;;;0.50;0.50;;;;;;;4.31;65.35;102060.50;5075541;28;20493;-68
2021/04/14 05:21:40;;;;;;;0.20;0.20;;;;;;;4.45;64.85;102054.88;5073969;28;20220;-68
2021/04/14 05:24:10;;;;;;;1.47;0.63;;;;;;;4.55;64.85;102057.28;5075998;28;20211;-72
2021/04/14 05:26:37;;;;;;;0.40;0.40;;;;;;;4.38;63.96;102008.94;5080110;28;20204;-71
2021/04/14 05:29:06;;;;;;;0.30;0.30;;;;;;;4.87;63.39;102058.34;5069867;28;20207;-66
2021/04/14 05:31:37;;;;;;;1.00;0.30;;;;;;;4.92;63.24;102061.81;5077299;28;20224;-67
2021/04/14 05:34:05;;;;;;;6.03;0.50;;;;;;;5.05;62.54;102067.72;5078255;28;20270;-67
2021/04/14 05:36:33;;;;;;;0.20;0.20;;;;;;;5.16;62.26;102061.22;5078021;28;20349;-68
2021/04/14 05:39:00;;;;;;;0.30;0.30;;;;;;;5.09;62.00;102033.00;5072887;28;20303;-68
2021/04/14 05:41:29;;;;;;;1.50;0.43;;;;;;;5.40;60.99;102069.53;5073446;28;20253;-72
2021/04/14 05:43:56;;;;;;;0.60;0.57;;;;;;;4.94;60.37;101996.97;5075698;28;20200;-67
2021/04/14 05:46:23;;;;;;;0.13;0.13;;;;;;;5.34;58.78;102069.69;5081986;28;20220;-68
2021/04/14 05:48:51;;;;;;;0.90;0.53;;;;;;;5.28;59.27;102081.38;5071831;28;20547;-71
2021/04/14 05:51:23;;;;;;;0.60;0.47;;;;;;;5.42;59.38;102083.69;5079599;28;20193;-73
2021/04/14 05:53:52;;;;;;;0.80;0.80;;;;;;;5.59;59.38;102081.47;5077441;28;20342;-73
2021/04/14 05:56:22;;;;;;;0.87;0.87;;;;;;;5.54;58.96;102036.31;5076637;28;20212;-73
2021/04/14 05:58:50;;;;;;;0.27;0.20;;;;;;;6.06;58.52;102087.34;5078739;28;20195;-70
2021/04/14 06:01:20;;;;;;;1.70;0.40;;;;;;;6.24;57.95;102092.19;5072382;28;20274;-69
2021/04/14 06:03:49;;;;;;;0.50;0.50;;;;;;;6.32;58.23;102084.84;5078244;28;20189;-69
2021/04/14 06:06:17;;;;;;;0.93;0.40;;;;;;;6.59;56.69;102088.50;5081975;28;20193;-68
2021/04/14 06:08:44;;;;;;;0.50;0.43;;;;;;;6.73;57.52;102088.09;5076863;28;20713;-69
2021/04/14 06:11:12;;;;;;;0.23;0.23;;;;;;;6.63;56.66;102068.81;5088699;28;20224;-69
2021/04/14 06:13:40;;;;;;;0.13;0.13;;;;;;;6.88;55.87;102089.44;5080080;28;20260;-69
2021/04/14 06:16:10;;;;;;;0.80;0.80;;;;;;;7.22;56.72;102099.94;5075647;28;20286;-69
2021/04/14 06:18:38;;;;;;;0.97;0.47;;;;;;;7.43;55.07;102101.91;5085688;28;20201;-69
2021/04/14 06:21:06;;;;;;;0.47;0.40;;;;;;;7.58;55.63;102096.03;5072515;28;20294;-69
2021/04/14 06:23:33;;;;;;;0.83;0.33;;;;;;;7.68;54.95;102085.94;5073434;28;20302;-69
2021/04/14 06:26:13;;;;;;;0.50;0.50;;;;;;;8.05;56.03;102109.59;5085900;28;20282;-69
2021/04/14 06:28:41;;;;;;;0.50;0.50;;;;;;;8.04;54.16;102107.84;5084947;28;20680;-69
2021/04/14 06:31:11;;;;;;;0.30;0.30;;;;;;;8.27;54.34;102115.06;5085338;28;20197;-69
2021/04/14 06:33:42;;;;;;;0.40;0.40;;;;;;;8.22;52.04;102115.22;5082445;28;20216;-69
2021/04/14 06:36:10;;;;;;;0.27;0.27;;;;;;;7.81;50.58;102115.78;5087610;28;20199;-69
2021/04/14 06:38:41;;;;;;;0.40;0.27;;;;;;;7.72;51.81;102123.22;5084738;28;20186;-69
2021/04/14 06:44:12;;;;;;;0.27;0.27;;;;;;;7.95;50.94;102110.81;5087866;28;20209;-73
2021/04/14 06:46:41;;;;;;;0.63;0.63;;;;;;;8.25;52.60;102124.94;5089030;28;20205;-73
2021/04/14 06:49:16;;;;;;;4.33;0.30;;;;;;;8.49;51.70;102115.16;5076628;28;20630;-73
2021/04/14 06:51:50;;;;;;;0.67;0.67;;;;;;;8.79;52.07;102132.78;5089341;28;20193;-73
2021/04/14 06:54:36;;;;;;;0.30;0.30;;;;;;;8.99;48.89;102124.84;5085590;28;20225;-69
2021/04/14 06:57:09;;;;;;;0.60;0.60;;;;;;;9.18;50.19;102126.78;5089527;28;20254;-69
2021/04/14 06:59:37;;;;;;;0.83;0.47;;;;;;;9.47;49.40;102134.53;5075158;28;20609;-69
2021/04/14 07:02:09;;;;;;;1.00;0.70;;;;;;;9.66;50.28;102126.63;5088915;28;20218;-69
2021/04/14 07:04:42;;;;;;;0.50;0.40;;;;;;;9.85;48.81;102129.41;5088228;28;20203;-68
2021/04/14 07:07:18;;;;;;;0.73;0.37;;;;;;;9.70;48.00;102135.41;5070445;28;20212;-73
2021/04/14 07:09:48;;;;;;;1.07;0.33;;;;;;;9.65;48.66;102095.38;5070907;28;20260;-69
2021/04/14 07:12:19;;;;;;;0.40;0.40;;;;;;;10.17;49.04;102136.94;5088350;28;20231;-73
2021/04/14 07:14:47;;;;;;;3.20;1.00;;;;;;;10.52;50.51;102134.53;5088101;28;20200;-70
2021/04/14 07:17:21;;;;;;;0.50;0.50;;;;;;;10.65;46.89;102135.72;5089454;28;20476;-69
2021/04/14 07:19:59;;;;;;;0.50;0.50;;;;;;;10.87;43.80;102132.91;5074791;28;20215;-69
2021/04/14 07:22:41;;;;;;;0.70;0.70;;;;;;;10.94;45.51;102144.25;5078561;28;20516;-74
2021/04/14 07:25:14;;;;;;;0.50;0.50;;;;;;;11.24;45.41;102147.31;5073371;28;20347;-74
2021/04/14 07:27:55;;;;;;;0.30;0.30;;;;;;;11.11;41.16;102141.66;5079873;28;20266;-69
2021/04/14 07:30:26;;;;;;;0.40;0.40;;;;;;;10.66;42.45;102140.16;5072842;28;20217;-70
2021/04/14 07:33:07;;;;;;;0.20;0.20;;;;;;;10.27;39.77;102143.69;5112493;27;20488;-69
2021/04/14 07:35:39;;;;;;;1.57;0.30;;;;;;;10.15;40.66;102143.31;5072167;28;20194;-70
2021/04/14 07:38:12;;;;;;;0.30;0.30;;;;;;;10.05;40.50;102096.31;5068941;28;20737;-70
2021/04/14 07:40:48;;;;;;;0.30;0.30;;;;;;;10.47;41.60;102150.00;5068890;28;20305;-70
2021/04/14 07:43:23;;;;;;;0.20;0.20;;;;;;;10.01;40.59;102151.09;5114595;27;20633;-69
2021/04/14 07:45:51;;;;;;;0.93;0.30;;;;;;;9.70;40.31;102151.50;5084040;28;20670;-74
2021/04/14 07:48:23;;;;;;;0.00;0.00;;;;;;;9.88;41.85;102156.97;5072008;28;20202;-73
2021/04/14 07:50:56;;;;;;;0.23;0.23;;;;;;;9.99;42.79;102155.66;5075696;28;20288;-69
2021/04/14 07:53:26;;;;;;;0.60;0.60;;;;;;;10.50;42.88;102153.41;5079578;28;20226;-69
2021/04/14 07:56:01;;;;;;;0.83;0.83;;;;;;;10.92;42.97;102168.50;5072250;28;20192;-69
2021/04/14 07:58:29;;;;;;;0.63;0.63;;;;;;;11.18;43.37;102164.59;5071864;28;20310;-74
2021/04/14 08:00:56;;;;;;;0.40;0.40;;;;;;;11.37;43.48;102162.81;5077823;28;20194;-74
2021/04/14 08:03:27;;;;;;;0.30;0.30;;;;;;;11.47;41.95;102168.59;5079471;28;20223;-74
2021/04/14 08:06:08;;;;;;;0.50;0.50;;;;;;;11.40;40.83;102151.00;5084972;28;20284;-74
2021/04/14 08:08:35;;;;;;;0.30;0.30;;;;;;;11.25;40.78;102170.56;5078897;28;20257;-74
2021/04/14 08:11:07;;;;;;;0.20;0.20;;;;;;;10.81;40.54;102170.84;5086471;28;20204;-74
2021/04/14 08:13:39;;;;;;;0.20;0.20;;;;;;;11.02;41.22;102168.94;5087690;28;20203;-74
2021/04/14 08:16:17;;;;;;;0.67;0.67;;;;;;;11.04;41.14;102169.78;5078219;28;20224;-74
2021/04/14 08:18:57;;;;;;;0.53;0.53;;;;;;;11.22;39.83;102173.41;5072159;28;20291;-74
2021/04/14 08:21:29;;;;;;;0.50;0.50;;;;;;;11.17;39.90;102141.34;5085323;28;20189;-73
2021/04/14 08:24:23;;;;;;;0.40;0.40;;;;;;;11.26;39.61;102173.19;5077158;28;20620;-74
2021/04/14 08:26:56;;;;;;;0.20;0.20;;;;;;;11.25;39.59;102176.81;5085673;28;20197;-74
2021/04/14 08:29:24;;;;;;;0.30;0.30;;;;;;;10.74;39.36;102182.81;5088013;28;20546;-74
2021/04/14 08:31:53;;;;;;;0.30;0.30;;;;;;;10.63;39.34;102164.47;5082640;28;20193;-74
2021/04/14 08:34:28;;;;;;;0.63;0.40;;;;;;;10.89;38.26;102177.59;5085334;28;20225;-74
2021/04/14 08:37:00;;;;;;;0.10;0.10;;;;;;;10.78;37.58;102182.59;5081805;28;20197;-73
2021/04/14 08:39:31;;;;;;;0.20;0.20;;;;;;;10.96;39.11;102180.88;5087484;28;20231;-74
2021/04/14 08:42:12;;;;;;;2.67;0.50;;;;;;;11.32;40.39;102183.63;5081216;28;20743;-74
2021/04/14 08:44:42;;;;;;;0.40;0.40;;;;;;;11.58;39.99;102184.19;5084610;28;20207;-74
2021/04/14 08:47:13;;;;;;;0.20;0.20;;;;;;;11.48;38.15;102200.81;5084151;28;20192;-74
2021/04/14 08:49:43;;;;;;;0.30;0.30;;;;;;;11.09;37.56;102191.94;5084640;28;20311;-74
2021/04/14 08:52:32;;;;;;;0.37;0.37;;;;;;;11.19;39.65;102182.47;5073732;28;20659;-74
2021/04/14 08:55:01;;;;;;;0.40;0.40;;;;;;;11.16;39.04;102182.63;5076055;28;20663;-73
2021/04/14 08:57:29;;;;;;;0.20;0.20;;;;;;;11.17;38.08;102173.63;5072138;28;20203;-74
2021/04/14 08:59:56;;;;;;;0.30;0.30;;;;;;;11.07;36.90;102185.75;5084018;28;20635;-74
2021/04/14 09:02:25;;;;;;;0.30;0.30;;;;;;;10.74;37.15;102189.06;5075653;28;20305;-73
2021/04/14 09:04:55;;;;;;;0.20;0.20;;;;;;;10.96;38.03;102188.94;5072865;28;20665;-73
2021/04/14 09:07:29;;;;;;;0.30;0.30;;;;;;;10.85;37.69;102143.75;5079676;28;20295;-73
2021/04/14 09:09:57;;;;;;;0.30;0.30;;;;;;;11.02;37.85;102185.97;5084204;28;20228;-73
2021/04/14 09:12:37;;;;;;;0.30;0.30;;;;;;;11.08;38.17;102131.91;5078853;28;20269;-73
2021/04/14 09:15:07;;;;;;;0.33;0.33;;;;;;;11.92;39.28;102180.75;5068544;28;20402;-74
2021/04/14 09:17:35;;;;;;;0.37;0.37;;;;;;;11.78;37.07;102182.31;5069052;28;20708;-74
2021/04/14 09:20:20;;;;;;;0.27;0.27;;;;;;;11.36;36.43;102187.94;5069430;28;20301;-74
2021/04/14 09:22:58;;;;;;;0.20;0.20;;;;;;;10.95;36.14;102199.75;5076791;28;20244;-74
2021/04/14 09:25:32;;;;;;;0.20;0.20;;;;;;;11.23;38.08;102194.84;5087844;28;20229;-73
2021/04/14 09:28:02;;;;;;;0.50;0.50;;;;;;;11.89;40.60;102194.38;5075878;28;20757;-74
2021/04/14 09:30:33;;;;;;;0.30;0.30;;;;;;;11.72;36.59;102193.38;5084835;28;20580;-74
2021/04/14 09:33:21;;;;;;;0.93;0.20;;;;;;;11.74;37.24;102195.97;5072077;28;20197;-74
2021/04/14 09:36:02;;;;;;;0.20;0.20;;;;;;;12.09;38.09;102196.94;5073653;28;20226;-74
2021/04/14 09:38:46;;;;;;;1.20;0.67;;;;;;;12.34;38.46;102202.81;5081747;28;20191;-73
2021/04/14 09:41:30;;;;;;;0.47;0.47;;;;;;;12.73;36.49;102199.84;5082800;28;20275;-73
2021/04/14 09:43:59;;;;;;;0.40;0.40;;;;;;;12.74;37.19;102193.50;5085693;28;20214;-74
2021/04/14 09:46:30;;;;;;;0.30;0.30;;;;;;;12.96;37.33;102200.44;5083430;28;20199;-73
2021/04/14 09:49:10;;;;;;;0.03;0.03;;;;;;;11.97;32.90;102195.75;5091648;28;20650;-74
2021/04/14 09:51:41;;;;;;;0.30;0.30;;;;;;;11.78;34.54;102202.97;5082213;28;20312;-73
2021/04/14 09:54:15;;;;;;;0.20;0.20;;;;;;;12.40;36.10;102188.16;5087534;28;20273;-74
2021/04/14 09:56:48;;;;;;;0.27;0.27;;;;;;;12.65;34.20;102193.13;5078084;28;20274;-74
2021/04/14 09:59:25;;;;;;;1.70;0.27;;;;;;;12.85;36.38;102203.69;5076531;28;20201;-73
2021/04/14 10:01:59;;;;;;;0.43;0.43;;;;;;;13.34;38.40;102199.22;5084223;28;20202;-73
2021/04/14 10:04:27;;;;;;;0.70;0.70;;;;;;;13.70;38.74;102198.09;5085023;28;20244;-73
2021/04/14 10:07:01;;;;;;;0.63;0.63;;;;;;;13.94;38.58;102201.22;5104820;27;20209;-74
2021/04/14 10:09:32;;;;;;;0.43;0.43;;;;;;;13.35;35.85;102192.88;5071452;28;20281;-73
2021/04/14 10:12:09;;;;;;;0.40;0.40;;;;;;;12.90;33.88;102206.16;5070981;28;20659;-74
2021/04/14 10:14:45;;;;;;;5.60;0.40;;;;;;;12.49;36.39;102198.44;5071651;28;20623;-74
2021/04/14 10:17:12;;;;;;;0.40;0.40;;;;;;;12.39;35.90;102198.06;5077926;28;20292;-73
2021/04/14 10:19:40;;;;;;;0.87;0.50;;;;;;;12.69;37.39;102209.06;5074716;28;20199;-73
2021/04/14 10:22:17;;;;;;;0.20;0.20;;;;;;;12.73;34.52;102201.66;5083280;28;20683;-74
2021/04/14 10:24:45;;;;;;;0.30;0.30;;;;;;;12.98;34.30;102194.00;5083223;28;20280;-74
2021/04/14 10:27:19;;;;;;;0.20;0.20;;;;;;;13.33;35.44;102207.41;5086655;28;20290;-73
2021/04/14 10:29:46;;;;;;;1.00;0.30;;;;;;;13.07;32.97;102208.81;5087401;28;20286;-74
2021/04/14 10:32:16;;;;;;;0.30;0.30;;;;;;;12.47;32.99;102205.72;5087911;28;20408;-74
2021/04/14 10:34:48;;;;;;;0.17;0.17;;;;;;;12.72;33.92;102210.72;5085478;28;20670;-74
2021/04/14 10:37:20;;;;;;;0.30;0.30;;;;;;;12.78;33.35;102213.06;5087628;28;20282;-73
2021/04/14 10:39:48;;;;;;;0.33;0.33;;;;;;;12.98;34.97;102207.50;5089966;28;20670;-74
2021/04/14 10:42:18;;;;;;;0.30;0.30;;;;;;;12.98;32.74;102202.09;5087375;28;20399;-73
2021/04/14 10:44:47;;;;;;;0.20;0.20;;;;;;;12.61;31.77;102202.34;5080848;28;20279;-73
2021/04/14 10:47:20;;;;;;;0.20;0.20;;;;;;;12.09;30.81;102211.28;5071664;28;20195;-73
2021/04/14 10:49:49;;;;;;;0.20;0.20;;;;;;;11.24;31.54;102215.41;5071910;28;20685;-74
2021/04/14 10:52:23;;;;;;;0.50;0.30;;;;;;;11.43;33.28;102221.69;5076126;28;20512;-73
2021/04/14 10:54:53;;;;;;;0.20;0.20;;;;;;;11.62;33.85;102212.69;5074285;28;20199;-73
2021/04/14 10:57:26;;;;;;;0.30;0.30;;;;;;;11.71;33.01;102206.91;5078589;28;20207;-73
2021/04/14 11:00:01;;;;;;;1.03;0.30;;;;;;;11.88;33.75;102209.63;5073678;28;20217;-73
2021/04/14 11:02:30;;;;;;;0.20;0.20;;;;;;;12.14;33.71;102216.41;5090631;28;20217;-73
2021/04/14 11:05:01;;;;;;;0.20;0.10;;;;;;;12.19;33.14;102214.34;5073413;28;20211;-73
2021/04/14 11:07:31;;;;;;;0.00;0.00;;;;;;;11.72;31.68;102219.41;5079862;28;20616;-73
2021/04/14 11:10:03;;;;;;;0.57;0.30;;;;;;;11.19;30.33;102144.84;5086232;28;20438;-74
2021/04/14 11:12:31;;;;;;;3.30;0.27;;;;;;;11.30;32.01;102228.56;5079286;28;20217;-73
2021/04/14 11:15:08;;;;;;;0.20;0.20;;;;;;;10.97;29.74;102216.69;5084726;28;20754;-73
2021/04/14 11:17:36;;;;;;;0.20;0.20;;;;;;;10.92;30.36;102213.34;5074899;28;20410;-73
2021/04/14 11:20:07;;;;;;;0.13;0.13;;;;;;;10.99;31.71;102185.22;5075105;28;20206;-74
2021/04/14 11:22:43;;;;;;;1.60;0.20;;;;;;;11.37;32.24;102221.09;5071355;28;20253;-73
2021/04/14 11:25:22;;;;;;;0.20;0.20;;;;;;;11.22;31.97;102216.44;5085043;28;20199;-73
2021/04/14 11:27:58;;;;;;;0.13;0.13;;;;;;;11.60;33.06;102219.97;5080465;28;20281;-73
2021/04/14 11:30:27;;;;;;;0.20;0.20;;;;;;;11.84;34.53;102224.22;5083421;28;20606;-73
2021/04/14 11:32:55;;;;;;;0.10;0.10;;;;;;;11.58;33.38;102221.88;5081006;28;20204;-73
2021/04/14 11:35:33;;;;;;;0.17;0.17;;;;;;;11.51;33.07;102224.00;5076544;28;20203;-73
2021/04/14 11:38:01;;;;;;;0.20;0.20;;;;;;;11.69;35.57;102224.94;5088969;28;20200;-73
2021/04/14 11:40:41;;;;;;;2.20;0.20;;;;;;;11.66;34.79;102231.34;5081906;28;20272;-73
2021/04/14 11:43:30;;;;;;;0.20;0.20;;;;;;;11.89;35.74;102223.97;5079093;28;20219;-73
2021/04/14 11:46:01;;;;;;;5.43;0.50;;;;;;;12.08;34.93;102217.59;5083653;28;20212;-73